createdAt,value
2023-05-19T00:00:04.043Z,72.44
2023-05-19T00:00:36.714Z,72.55
2023-05-19T00:01:09.384Z,72.65
2023-05-19T00:01:42.059Z,72.65
2023-05-19T00:02:14.751Z,72.75
2023-05-19T00:02:47.496Z,72.55
2023-05-19T00:03:20.229Z,72.55
2023-05-19T00:03:52.887Z,72.65
2023-05-19T00:04:25.566Z,72.75
2023-05-19T00:04:58.230Z,72.85
2023-05-19T00:05:31.025Z,72.85
2023-05-19T00:06:03.859Z,72.65
2023-05-19T00:06:36.525Z,73.06
2023-05-19T00:07:09.191Z,72.55
2023-05-19T00:07:41.877Z,72.34
2023-05-19T00:08:14.567Z,72.24
2023-05-19T00:08:47.215Z,72.38
2023-05-19T00:09:19.896Z,72.44
2023-05-19T00:09:52.572Z,72.58
2023-05-19T00:10:25.266Z,72.58
2023-05-19T00:10:57.919Z,72.68
2023-05-19T00:11:30.584Z,72.58
2023-05-19T00:12:03.266Z,72.58
2023-05-19T00:12:35.946Z,72.58
2023-05-19T00:13:08.589Z,72.58
2023-05-19T00:13:41.270Z,72.58
2023-05-19T00:14:13.953Z,72.58
2023-05-19T00:14:46.638Z,72.58
2023-05-19T00:15:19.340Z,72.58
2023-05-19T00:15:52.032Z,72.58
2023-05-19T00:16:24.895Z,72.58
2023-05-19T00:16:57.679Z,72.68
2023-05-19T00:17:30.363Z,72.58
2023-05-19T00:18:03.196Z,72.47
2023-05-19T00:18:35.964Z,72.27
2023-05-19T00:19:08.719Z,72.06
2023-05-19T00:19:41.422Z,72.38
2023-05-19T00:20:14.098Z,72.47
2023-05-19T00:20:46.764Z,72.27
2023-05-19T00:21:19.461Z,72.38
2023-05-19T00:21:52.127Z,72.47
2023-05-19T00:22:24.804Z,72.38
2023-05-19T00:22:57.469Z,72.47
2023-05-19T00:23:30.138Z,72.47
2023-05-19T00:24:02.840Z,72.47
2023-05-19T00:24:35.498Z,72.68
2023-05-19T00:25:08.186Z,72.68
2023-05-19T00:25:40.890Z,72.58
2023-05-19T00:26:13.564Z,72.72
2023-05-19T00:26:46.210Z,72.92
2023-05-19T00:27:18.885Z,72.81
2023-05-19T00:27:51.558Z,72.81
2023-05-19T00:28:24.253Z,72.92
2023-05-19T00:28:56.925Z,73.13
2023-05-19T00:29:29.601Z,73.13
2023-05-19T00:30:02.298Z,73.02
2023-05-19T00:30:34.969Z,73.02
2023-05-19T00:31:07.640Z,72.92
2023-05-19T00:31:40.418Z,73.02
2023-05-19T00:32:13.230Z,73.02
2023-05-19T00:32:46.077Z,72.92
2023-05-19T00:33:18.724Z,73.02
2023-05-19T00:33:51.416Z,73.02
2023-05-19T00:34:24.084Z,72.92
2023-05-19T00:34:56.745Z,73.02
2023-05-19T00:35:29.426Z,73.02
2023-05-19T00:36:02.167Z,73.13
2023-05-19T00:36:34.809Z,73.13
2023-05-19T00:37:07.502Z,73.13
2023-05-19T00:37:40.162Z,73.33
2023-05-19T00:38:12.829Z,73.26
2023-05-19T00:38:45.501Z,73.33
2023-05-19T00:39:18.172Z,73.47
2023-05-19T00:39:50.846Z,73.47
2023-05-19T00:40:23.518Z,73.57
2023-05-19T00:40:56.196Z,73.57
2023-05-19T00:41:28.837Z,73.57
2023-05-19T00:42:01.500Z,73.68
2023-05-19T00:42:34.180Z,73.68
2023-05-19T00:43:06.846Z,73.68
2023-05-19T00:43:39.510Z,73.68
2023-05-19T00:44:12.181Z,73.78
2023-05-19T00:44:44.864Z,73.88
2023-05-19T00:45:17.552Z,73.98
2023-05-19T00:45:50.222Z,73.98
2023-05-19T00:46:22.978Z,73.88
2023-05-19T00:46:55.758Z,73.98
2023-05-19T00:47:28.438Z,73.98
2023-05-19T00:48:01.159Z,74.19
2023-05-19T00:48:33.799Z,73.98
2023-05-19T00:49:06.478Z,73.98
2023-05-19T00:49:39.163Z,73.88
2023-05-19T00:50:11.836Z,73.88
2023-05-19T00:50:44.513Z,73.98
2023-05-19T00:51:17.379Z,73.98
2023-05-19T00:51:50.035Z,74.08
2023-05-19T00:52:22.723Z,73.98
2023-05-19T00:52:55.386Z,73.98
2023-05-19T00:53:28.065Z,73.98
2023-05-19T00:54:00.760Z,74.19
2023-05-19T00:54:33.420Z,74.29
2023-05-19T00:55:06.085Z,74.19
2023-05-19T00:55:38.751Z,74.08
2023-05-19T00:56:11.446Z,74.08
2023-05-19T00:56:44.087Z,74.19
2023-05-19T00:57:16.751Z,74.08
2023-05-19T00:57:49.416Z,74.19
2023-05-19T00:58:22.092Z,74.29
2023-05-19T00:58:54.808Z,74.29
2023-05-19T00:59:27.459Z,74.29
2023-05-19T01:00:00.217Z,74.29
2023-05-19T01:00:33.196Z,74.33
2023-05-19T01:00:59.668Z,74.33
2023-05-19T01:01:32.577Z,74.43
2023-05-19T01:02:05.262Z,74.53
2023-05-19T01:02:37.978Z,74.53
2023-05-19T01:03:10.771Z,74.43
2023-05-19T01:03:43.722Z,74.63
2023-05-19T01:04:16.481Z,74.74
2023-05-19T01:04:49.175Z,74.84
2023-05-19T01:05:21.822Z,74.84
2023-05-19T01:05:54.499Z,74.84
2023-05-19T01:06:27.150Z,74.95
2023-05-19T01:06:59.824Z,75.05
2023-05-19T01:07:32.501Z,75.15
2023-05-19T01:08:05.168Z,75.29
2023-05-19T01:08:37.839Z,75.29
2023-05-19T01:09:10.518Z,75.39
2023-05-19T01:09:43.236Z,75.39
2023-05-19T01:10:15.903Z,75.39
2023-05-19T01:10:48.576Z,75.49
2023-05-19T01:11:19.679Z,75.60
2023-05-19T01:11:52.330Z,75.70
2023-05-19T01:12:25.012Z,75.81
2023-05-19T01:12:57.677Z,75.81
2023-05-19T01:13:30.351Z,75.90
2023-05-19T01:14:03.026Z,75.90
2023-05-19T01:14:35.689Z,76.01
2023-05-19T01:15:08.346Z,76.11
2023-05-19T01:15:41.019Z,76.01
2023-05-19T01:16:13.726Z,76.11
2023-05-19T01:16:46.587Z,76.21
2023-05-19T01:17:19.265Z,76.32
2023-05-19T01:17:51.968Z,76.42
2023-05-19T01:18:24.624Z,76.32
2023-05-19T01:18:57.363Z,76.32
2023-05-19T01:19:30.089Z,76.42
2023-05-19T01:20:02.802Z,76.53
2023-05-19T01:20:35.468Z,76.56
2023-05-19T01:21:08.144Z,76.56
2023-05-19T01:21:40.804Z,76.63
2023-05-19T01:22:13.542Z,76.66
2023-05-19T01:22:46.189Z,76.76
2023-05-19T01:23:18.862Z,76.76
2023-05-19T01:23:51.557Z,76.76
2023-05-19T01:24:24.269Z,76.76
2023-05-19T01:24:56.925Z,76.97
2023-05-19T01:25:29.578Z,76.97
2023-05-19T01:26:02.237Z,76.87
2023-05-19T01:26:34.948Z,76.97
2023-05-19T01:27:06.011Z,77.18
2023-05-19T01:27:38.672Z,77.08
2023-05-19T01:28:11.338Z,76.87
2023-05-19T01:28:44.018Z,76.87
2023-05-19T01:29:16.707Z,76.97
2023-05-19T01:29:49.390Z,76.97
2023-05-19T01:30:22.057Z,76.97
2023-05-19T01:30:54.717Z,76.87
2023-05-19T01:31:27.399Z,76.97
2023-05-19T01:32:00.134Z,76.97
2023-05-19T01:32:32.904Z,76.76
2023-05-19T01:33:05.634Z,77.08
2023-05-19T01:33:38.293Z,77.08
2023-05-19T01:34:10.970Z,76.97
2023-05-19T01:34:43.647Z,76.87
2023-05-19T01:35:16.316Z,76.87
2023-05-19T01:35:48.974Z,76.97
2023-05-19T01:36:21.652Z,76.87
2023-05-19T01:36:54.318Z,76.87
2023-05-19T01:37:26.995Z,76.76
2023-05-19T01:37:59.658Z,76.87
2023-05-19T01:38:32.331Z,76.97
2023-05-19T01:39:05.009Z,76.97
2023-05-19T01:39:37.683Z,76.97
2023-05-19T01:40:10.381Z,76.97
2023-05-19T01:40:43.047Z,77.08
2023-05-19T01:41:14.137Z,77.18
2023-05-19T01:41:46.839Z,77.08
2023-05-19T01:42:19.485Z,77.08
2023-05-19T01:42:52.161Z,77.08
2023-05-19T01:43:24.836Z,77.08
2023-05-19T01:43:57.541Z,77.18
2023-05-19T01:44:30.209Z,77.28
2023-05-19T01:45:02.871Z,77.18
2023-05-19T01:45:35.585Z,77.08
2023-05-19T01:46:08.294Z,77.18
2023-05-19T01:46:40.990Z,77.18
2023-05-19T01:47:13.668Z,77.18
2023-05-19T01:47:46.412Z,77.28
2023-05-19T01:48:19.097Z,77.28
2023-05-19T01:48:51.760Z,77.38
2023-05-19T01:49:24.418Z,77.38
2023-05-19T01:49:57.088Z,77.28
2023-05-19T01:50:30.004Z,77.38
2023-05-19T01:50:56.337Z,77.38
2023-05-19T01:51:29.000Z,77.38
2023-05-19T01:52:01.670Z,77.38
2023-05-19T01:52:34.329Z,77.42
2023-05-19T01:53:07.007Z,77.42
2023-05-19T01:53:39.673Z,77.38
2023-05-19T01:54:12.364Z,77.52
2023-05-19T01:54:45.121Z,77.52
2023-05-19T01:55:17.765Z,77.52
2023-05-19T01:55:50.436Z,77.52
2023-05-19T01:56:23.143Z,77.42
2023-05-19T01:56:55.823Z,77.42
2023-05-19T01:57:28.487Z,77.73
2023-05-19T01:58:01.161Z,77.83
2023-05-19T01:58:33.832Z,77.94
2023-05-19T01:59:06.526Z,78.04
2023-05-19T01:59:39.198Z,78.04
2023-05-19T02:00:11.865Z,78.04
2023-05-19T02:00:44.556Z,78.14
2023-05-19T02:01:17.271Z,78.14
2023-05-19T02:01:49.919Z,78.18
2023-05-19T02:02:22.583Z,78.18
2023-05-19T02:02:55.283Z,78.28
2023-05-19T02:03:27.920Z,78.18
2023-05-19T02:04:00.699Z,78.28
2023-05-19T02:04:33.410Z,78.28
2023-05-19T02:05:06.060Z,78.18
2023-05-19T02:05:38.736Z,78.18
2023-05-19T02:06:11.394Z,78.18
2023-05-19T02:06:44.060Z,78.28
2023-05-19T02:07:16.736Z,78.28
2023-05-19T02:07:49.414Z,78.18
2023-05-19T02:08:22.096Z,78.28
2023-05-19T02:08:54.766Z,78.38
2023-05-19T02:09:27.437Z,78.38
2023-05-19T02:10:00.200Z,78.49
2023-05-19T02:10:33.057Z,78.59
2023-05-19T02:10:59.368Z,78.69
2023-05-19T02:11:32.036Z,78.69
2023-05-19T02:12:04.743Z,78.80
2023-05-19T02:12:37.392Z,78.80
2023-05-19T02:13:10.056Z,78.90
2023-05-19T02:13:42.730Z,78.90
2023-05-19T02:14:15.451Z,78.90
2023-05-19T02:14:48.113Z,78.80
2023-05-19T02:15:20.778Z,78.69
2023-05-19T02:15:53.481Z,78.59
2023-05-19T02:16:26.281Z,78.59
2023-05-19T02:16:58.968Z,78.59
2023-05-19T02:17:31.684Z,78.69
2023-05-19T02:18:04.404Z,79.00
2023-05-19T02:18:37.120Z,79.11
2023-05-19T02:19:09.927Z,79.11
2023-05-19T02:19:42.643Z,79.00
2023-05-19T02:20:15.310Z,78.90
2023-05-19T02:20:47.982Z,78.80
2023-05-19T02:21:20.666Z,79.00
2023-05-19T02:21:53.327Z,79.00
2023-05-19T02:22:25.988Z,79.00
2023-05-19T02:22:58.656Z,79.21
2023-05-19T02:23:31.322Z,79.31
2023-05-19T02:24:04.024Z,79.21
2023-05-19T02:24:36.696Z,79.21
2023-05-19T02:25:09.388Z,79.31
2023-05-19T02:25:42.037Z,79.31
2023-05-19T02:26:14.708Z,79.31
2023-05-19T02:26:47.381Z,79.31
2023-05-19T02:27:20.072Z,79.41
2023-05-19T02:27:52.738Z,79.52
2023-05-19T02:28:25.396Z,79.52
2023-05-19T02:28:58.076Z,79.52
2023-05-19T02:29:30.761Z,79.52
2023-05-19T02:30:03.424Z,79.52
2023-05-19T02:30:36.090Z,79.62
2023-05-19T02:31:08.795Z,79.62
2023-05-19T02:31:41.481Z,79.52
2023-05-19T02:32:14.141Z,79.52
2023-05-19T02:32:46.979Z,79.62
2023-05-19T02:33:19.664Z,79.72
2023-05-19T02:33:52.360Z,79.72
2023-05-19T02:34:25.033Z,79.83
2023-05-19T02:34:57.726Z,79.72
2023-05-19T02:35:30.402Z,79.72
2023-05-19T02:36:03.092Z,79.62
2023-05-19T02:36:35.769Z,79.62
2023-05-19T02:37:08.435Z,79.72
2023-05-19T02:37:41.102Z,79.93
2023-05-19T02:38:13.779Z,79.72
2023-05-19T02:38:46.438Z,79.72
2023-05-19T02:39:19.162Z,79.72
2023-05-19T02:39:51.810Z,79.72
2023-05-19T02:40:24.486Z,79.72
2023-05-19T02:40:57.167Z,79.72
2023-05-19T02:41:29.837Z,79.72
2023-05-19T02:42:02.503Z,79.72
2023-05-19T02:42:35.200Z,79.83
2023-05-19T02:43:07.861Z,79.83
2023-05-19T02:43:40.509Z,79.83
2023-05-19T02:44:13.187Z,79.93
2023-05-19T02:44:45.861Z,79.93
2023-05-19T02:45:18.536Z,80.04
2023-05-19T02:45:51.205Z,80.04
2023-05-19T02:46:23.913Z,79.93
2023-05-19T02:46:56.591Z,79.93
2023-05-19T02:47:29.284Z,79.83
2023-05-19T02:48:01.988Z,79.83
2023-05-19T02:48:34.627Z,79.83
2023-05-19T02:49:07.318Z,79.72
2023-05-19T02:49:39.986Z,79.62
2023-05-19T02:50:12.661Z,79.72
2023-05-19T02:50:45.321Z,79.72
2023-05-19T02:51:17.995Z,79.83
2023-05-19T02:51:50.656Z,79.83
2023-05-19T02:52:23.332Z,79.83
2023-05-19T02:52:56.006Z,79.93
2023-05-19T02:53:28.678Z,79.90
2023-05-19T02:54:01.383Z,79.93
2023-05-19T02:54:34.035Z,80.04
2023-05-19T02:55:06.724Z,80.00
2023-05-19T02:55:39.523Z,80.00
2023-05-19T02:56:12.199Z,79.90
2023-05-19T02:56:44.864Z,79.90
2023-05-19T02:57:17.512Z,79.93
2023-05-19T02:57:50.276Z,79.79
2023-05-19T02:58:22.926Z,79.69
2023-05-19T02:58:54.028Z,79.79
2023-05-19T02:59:26.698Z,79.79
2023-05-19T02:59:59.383Z,79.69
2023-05-19T03:00:32.368Z,79.79
2023-05-19T03:00:58.650Z,79.79
2023-05-19T03:01:31.355Z,79.90
2023-05-19T03:02:04.032Z,80.00
2023-05-19T03:02:36.713Z,80.10
2023-05-19T03:03:09.482Z,80.00
2023-05-19T03:03:42.296Z,79.79
2023-05-19T03:04:15.076Z,79.83
2023-05-19T03:04:47.759Z,79.69
2023-05-19T03:05:20.421Z,79.72
2023-05-19T03:05:53.090Z,79.72
2023-05-19T03:06:25.770Z,79.83
2023-05-19T03:06:58.437Z,79.83
2023-05-19T03:07:31.109Z,79.93
2023-05-19T03:08:03.785Z,79.93
2023-05-19T03:08:36.462Z,80.14
2023-05-19T03:09:09.134Z,80.24
2023-05-19T03:09:41.800Z,80.34
2023-05-19T03:10:14.472Z,80.34
2023-05-19T03:10:47.147Z,80.34
2023-05-19T03:11:19.841Z,80.34
2023-05-19T03:11:52.491Z,80.44
2023-05-19T03:12:25.181Z,80.44
2023-05-19T03:12:57.922Z,80.34
2023-05-19T03:13:30.554Z,80.44
2023-05-19T03:14:03.257Z,80.44
2023-05-19T03:14:35.945Z,80.65
2023-05-19T03:15:08.602Z,80.65
2023-05-19T03:15:41.274Z,80.65
2023-05-19T03:16:14.084Z,80.65
2023-05-19T03:16:47.014Z,80.76
2023-05-19T03:17:19.878Z,80.76
2023-05-19T03:17:52.713Z,80.76
2023-05-19T03:18:19.067Z,80.76
2023-05-19T03:18:51.798Z,80.86
2023-05-19T03:19:24.592Z,81.07
2023-05-19T03:19:57.318Z,80.96
2023-05-19T03:20:28.416Z,80.96
2023-05-19T03:21:01.108Z,80.86
2023-05-19T03:21:33.769Z,80.86
2023-05-19T03:22:06.521Z,80.86
2023-05-19T03:22:39.221Z,80.86
2023-05-19T03:23:11.880Z,80.96
2023-05-19T03:23:44.545Z,80.96
2023-05-19T03:24:17.231Z,80.96
2023-05-19T03:24:49.950Z,80.96
2023-05-19T03:25:22.586Z,80.96
2023-05-19T03:25:55.253Z,80.96
2023-05-19T03:26:27.915Z,80.86
2023-05-19T03:27:00.603Z,80.86
2023-05-19T03:27:33.255Z,81.07
2023-05-19T03:28:05.938Z,81.17
2023-05-19T03:28:38.630Z,81.17
2023-05-19T03:29:11.333Z,81.17
2023-05-19T03:29:43.995Z,81.17
2023-05-19T03:30:16.672Z,81.17
2023-05-19T03:30:49.337Z,81.07
2023-05-19T03:31:22.009Z,81.17
2023-05-19T03:31:54.705Z,81.37
2023-05-19T03:32:27.502Z,81.48
2023-05-19T03:33:00.319Z,81.27
2023-05-19T03:33:33.121Z,81.27
2023-05-19T03:34:05.833Z,81.27
2023-05-19T03:34:38.493Z,81.27
2023-05-19T03:35:11.173Z,81.27
2023-05-19T03:35:43.828Z,81.27
2023-05-19T03:36:16.511Z,81.17
2023-05-19T03:36:49.175Z,81.17
2023-05-19T03:37:21.837Z,81.17
2023-05-19T03:37:54.524Z,81.27
2023-05-19T03:38:27.180Z,81.27
2023-05-19T03:38:59.852Z,81.27
2023-05-19T03:39:32.530Z,81.27
2023-05-19T03:40:05.190Z,81.27
2023-05-19T03:40:37.856Z,81.17
2023-05-19T03:41:10.536Z,81.07
2023-05-19T03:41:43.220Z,81.17
2023-05-19T03:42:15.873Z,81.17
2023-05-19T03:42:48.546Z,81.37
2023-05-19T03:43:21.301Z,81.27
2023-05-19T03:43:53.958Z,81.27
2023-05-19T03:44:26.670Z,81.37
2023-05-19T03:44:59.316Z,81.37
2023-05-19T03:45:31.987Z,81.37
2023-05-19T03:46:04.729Z,81.37
2023-05-19T03:46:37.414Z,81.37
2023-05-19T03:47:10.079Z,81.37
2023-05-19T03:47:42.763Z,81.37
2023-05-19T03:48:15.425Z,81.27
2023-05-19T03:48:48.104Z,81.27
2023-05-19T03:49:20.789Z,81.27
2023-05-19T03:49:53.446Z,81.27
2023-05-19T03:50:26.134Z,81.27
2023-05-19T03:50:58.896Z,81.37
2023-05-19T03:51:31.546Z,81.37
2023-05-19T03:52:04.218Z,81.27
2023-05-19T03:52:36.885Z,81.27
2023-05-19T03:53:09.550Z,81.37
2023-05-19T03:53:42.209Z,81.37
2023-05-19T03:54:14.896Z,81.27
2023-05-19T03:54:47.574Z,81.37
2023-05-19T03:55:20.291Z,81.48
2023-05-19T03:55:52.944Z,81.48
2023-05-19T03:56:25.606Z,81.48
2023-05-19T03:56:58.281Z,81.58
2023-05-19T03:57:30.962Z,81.48
2023-05-19T03:58:03.630Z,81.37
2023-05-19T03:58:36.325Z,81.48
2023-05-19T03:59:08.996Z,81.68
2023-05-19T03:59:41.668Z,81.58
2023-05-19T04:00:14.332Z,81.58
2023-05-19T04:00:47.010Z,81.58
2023-05-19T04:01:19.680Z,81.68
2023-05-19T04:01:52.355Z,81.79
2023-05-19T04:02:25.177Z,81.99
2023-05-19T04:02:58.004Z,81.89
2023-05-19T04:03:30.765Z,81.99
2023-05-19T04:04:03.536Z,82.10
2023-05-19T04:04:36.262Z,81.99
2023-05-19T04:05:07.288Z,81.99
2023-05-19T04:05:39.948Z,81.89
2023-05-19T04:06:12.643Z,81.89
2023-05-19T04:06:45.305Z,81.79
2023-05-19T04:07:17.983Z,81.79
2023-05-19T04:07:50.715Z,81.79
2023-05-19T04:08:23.379Z,81.99
2023-05-19T04:08:56.078Z,81.99
2023-05-19T04:09:28.745Z,81.96
2023-05-19T04:10:01.441Z,81.96
2023-05-19T04:10:34.263Z,81.85
2023-05-19T04:11:07.015Z,81.96
2023-05-19T04:11:39.686Z,81.85
2023-05-19T04:12:12.335Z,81.75
2023-05-19T04:12:44.999Z,81.65
2023-05-19T04:13:17.681Z,81.65
2023-05-19T04:13:50.392Z,81.65
2023-05-19T04:14:23.042Z,81.65
2023-05-19T04:14:55.703Z,81.65
2023-05-19T04:15:28.480Z,81.65
2023-05-19T04:16:01.161Z,81.65
2023-05-19T04:16:33.873Z,81.61
2023-05-19T04:17:06.538Z,81.81
2023-05-19T04:17:39.227Z,81.81
2023-05-19T04:18:11.952Z,81.81
2023-05-19T04:18:44.694Z,81.71
2023-05-19T04:19:17.762Z,81.61
2023-05-19T04:19:43.951Z,81.51
2023-05-19T04:20:16.618Z,81.40
2023-05-19T04:20:49.283Z,81.30
2023-05-19T04:21:21.961Z,81.30
2023-05-19T04:21:54.625Z,81.20
2023-05-19T04:22:27.300Z,81.20
2023-05-19T04:22:59.993Z,81.30
2023-05-19T04:23:32.714Z,81.40
2023-05-19T04:24:05.375Z,81.30
2023-05-19T04:24:38.043Z,81.20
2023-05-19T04:25:10.719Z,81.09
2023-05-19T04:25:43.396Z,80.89
2023-05-19T04:26:16.102Z,80.75
2023-05-19T04:26:48.774Z,80.75
2023-05-19T04:27:21.457Z,80.75
2023-05-19T04:27:54.120Z,80.85
2023-05-19T04:28:26.797Z,80.95
2023-05-19T04:28:59.504Z,80.95
2023-05-19T04:29:32.154Z,80.85
2023-05-19T04:30:04.875Z,80.95
2023-05-19T04:30:37.521Z,80.95
2023-05-19T04:31:10.193Z,81.05
2023-05-19T04:31:42.973Z,80.95
2023-05-19T04:32:15.650Z,81.16
2023-05-19T04:32:48.362Z,81.16
2023-05-19T04:33:21.058Z,81.05
2023-05-19T04:33:53.753Z,80.95
2023-05-19T04:34:26.424Z,80.81
2023-05-19T04:34:59.089Z,80.91
2023-05-19T04:35:31.754Z,81.23
2023-05-19T04:36:04.432Z,81.02
2023-05-19T04:36:37.089Z,80.81
2023-05-19T04:37:09.768Z,80.61
2023-05-19T04:37:42.432Z,80.51
2023-05-19T04:38:15.107Z,80.51
2023-05-19T04:38:47.782Z,80.30
2023-05-19T04:39:20.463Z,80.30
2023-05-19T04:39:51.549Z,80.30
2023-05-19T04:40:24.231Z,80.30
2023-05-19T04:40:56.885Z,80.30
2023-05-19T04:41:29.562Z,80.30
2023-05-19T04:42:02.231Z,80.67
2023-05-19T04:42:34.911Z,80.47
2023-05-19T04:43:07.595Z,80.36
2023-05-19T04:43:40.281Z,80.26
2023-05-19T04:44:12.999Z,80.26
2023-05-19T04:44:45.649Z,80.05
2023-05-19T04:45:18.341Z,79.85
2023-05-19T04:45:51.022Z,80.16
2023-05-19T04:46:23.713Z,80.36
2023-05-19T04:46:56.453Z,80.05
2023-05-19T04:47:29.114Z,79.95
2023-05-19T04:48:01.828Z,79.75
2023-05-19T04:48:34.510Z,79.54
2023-05-19T04:49:07.202Z,79.54
2023-05-19T04:49:39.876Z,79.50
2023-05-19T04:50:12.541Z,79.71
2023-05-19T04:50:45.208Z,79.61
2023-05-19T04:51:17.872Z,79.30
2023-05-19T04:51:51.838Z,79.50
2023-05-19T04:52:18.853Z,79.61
2023-05-19T04:52:51.533Z,79.50
2023-05-19T04:53:24.220Z,79.09
2023-05-19T04:53:56.889Z,79.19
2023-05-19T04:54:29.549Z,79.19
2023-05-19T04:55:02.230Z,79.30
2023-05-19T04:55:34.890Z,79.09
2023-05-19T04:56:07.562Z,79.40
2023-05-19T04:56:40.224Z,79.57
2023-05-19T04:57:12.891Z,79.47
2023-05-19T04:57:45.557Z,79.26
2023-05-19T04:58:18.235Z,79.05
2023-05-19T04:58:50.940Z,79.05
2023-05-19T04:59:23.614Z,79.16
2023-05-19T04:59:56.275Z,78.96
2023-05-19T05:00:28.942Z,78.96
2023-05-19T05:01:01.619Z,78.96
2023-05-19T05:01:34.325Z,78.96
2023-05-19T05:02:07.175Z,78.85
2023-05-19T05:02:40.011Z,78.54
2023-05-19T05:03:12.723Z,78.23
2023-05-19T05:03:45.468Z,78.23
2023-05-19T05:04:18.143Z,78.23
2023-05-19T05:04:50.814Z,78.09
2023-05-19T05:05:23.483Z,77.99
2023-05-19T05:05:56.156Z,78.09
2023-05-19T05:06:28.826Z,78.09
2023-05-19T05:07:01.479Z,77.99
2023-05-19T05:07:34.144Z,78.20
2023-05-19T05:08:06.827Z,77.89
2023-05-19T05:08:39.512Z,77.78
2023-05-19T05:09:12.161Z,77.89
2023-05-19T05:09:44.835Z,77.89
2023-05-19T05:10:17.541Z,77.78
2023-05-19T05:10:50.214Z,78.06
2023-05-19T05:11:22.894Z,78.16
2023-05-19T05:12:28.202Z,77.95
2023-05-19T05:13:00.873Z,77.34
2023-05-19T05:13:33.538Z,77.03
2023-05-19T05:14:06.229Z,77.23
2023-05-19T05:14:38.985Z,77.44
2023-05-19T05:15:11.638Z,77.23
2023-05-19T05:15:44.303Z,77.13
2023-05-19T05:16:17.030Z,77.23
2023-05-19T05:16:49.766Z,77.10
2023-05-19T05:17:22.471Z,77.10
2023-05-19T05:17:55.250Z,77.00
2023-05-19T05:18:27.906Z,77.00
2023-05-19T05:19:00.641Z,77.10
2023-05-19T05:19:33.406Z,76.79
2023-05-19T05:20:06.205Z,75.97
2023-05-19T05:20:38.857Z,75.87
2023-05-19T05:21:11.530Z,75.97
2023-05-19T05:21:44.196Z,75.97
2023-05-19T05:22:16.886Z,76.07
2023-05-19T05:22:49.561Z,76.14
2023-05-19T05:23:22.250Z,76.55
2023-05-19T05:23:54.904Z,76.65
2023-05-19T05:24:27.575Z,76.14
2023-05-19T05:25:00.242Z,75.93
2023-05-19T05:25:33.134Z,76.14
2023-05-19T05:25:59.456Z,75.73
2023-05-19T05:26:32.126Z,75.32
2023-05-19T05:27:04.779Z,75.52
2023-05-19T05:27:37.450Z,75.73
2023-05-19T05:28:10.126Z,75.42
2023-05-19T05:28:42.785Z,75.49
2023-05-19T05:29:15.482Z,75.08
2023-05-19T05:29:48.183Z,74.98
2023-05-19T05:30:20.833Z,75.08
2023-05-19T05:30:53.493Z,75.49
2023-05-19T05:31:26.170Z,75.49
2023-05-19T05:31:58.883Z,74.87
2023-05-19T05:32:31.624Z,74.46
2023-05-19T05:33:04.433Z,74.36
2023-05-19T05:33:37.169Z,74.57
2023-05-19T05:34:09.845Z,74.57
2023-05-19T05:34:42.505Z,74.66
2023-05-19T05:35:15.170Z,74.73
2023-05-19T05:35:47.851Z,74.73
2023-05-19T05:36:20.544Z,74.84
2023-05-19T05:36:53.203Z,74.84
2023-05-19T05:37:25.877Z,74.43
2023-05-19T05:37:58.608Z,74.43
2023-05-19T05:38:31.267Z,74.53
2023-05-19T05:39:03.960Z,74.32
2023-05-19T05:39:36.646Z,74.12
2023-05-19T05:40:09.308Z,74.02
2023-05-19T05:40:41.982Z,74.08
2023-05-19T05:41:14.646Z,74.49
2023-05-19T05:41:47.314Z,74.08
2023-05-19T05:42:19.990Z,73.36
2023-05-19T05:42:52.657Z,73.36
2023-05-19T05:43:25.348Z,73.47
2023-05-19T05:43:58.024Z,73.47
2023-05-19T05:44:30.700Z,73.78
2023-05-19T05:45:03.391Z,73.27
2023-05-19T05:45:36.117Z,72.86
2023-05-19T05:46:08.877Z,72.86
2023-05-19T05:46:41.617Z,73.16
2023-05-19T05:47:14.261Z,73.16
2023-05-19T05:47:47.039Z,73.16
2023-05-19T05:48:19.700Z,72.82
2023-05-19T05:48:52.394Z,72.82
2023-05-19T05:49:25.056Z,72.92
2023-05-19T05:49:57.734Z,73.23
2023-05-19T05:50:30.434Z,73.23
2023-05-19T05:51:03.086Z,72.92
2023-05-19T05:51:35.769Z,73.44
2023-05-19T05:52:08.429Z,73.13
2023-05-19T05:52:41.088Z,73.13
2023-05-19T05:53:13.760Z,72.99
2023-05-19T05:53:46.440Z,72.78
2023-05-19T05:54:19.123Z,72.38
2023-05-19T05:54:51.790Z,71.97
2023-05-19T05:55:24.459Z,71.97
2023-05-19T05:55:57.126Z,72.17
2023-05-19T05:56:29.810Z,72.17
2023-05-19T05:57:02.499Z,72.17
2023-05-19T05:57:35.156Z,72.17
2023-05-19T05:58:07.823Z,72.17
2023-05-19T05:58:40.494Z,71.73
2023-05-19T05:59:13.193Z,71.53
2023-05-19T05:59:45.865Z,71.32
2023-05-19T06:00:18.566Z,71.53
2023-05-19T06:00:51.210Z,71.32
2023-05-19T06:01:23.968Z,71.32
2023-05-19T06:01:56.725Z,71.53
2023-05-19T06:02:29.525Z,71.73
2023-05-19T06:03:02.239Z,71.73
2023-05-19T06:03:34.989Z,71.70
2023-05-19T06:04:07.676Z,71.29
2023-05-19T06:04:40.328Z,71.08
2023-05-19T06:05:13.090Z,70.98
2023-05-19T06:05:45.832Z,70.88
2023-05-19T06:06:18.505Z,70.88
2023-05-19T06:06:51.170Z,70.57
2023-05-19T06:07:23.876Z,70.26
2023-05-19T06:07:56.520Z,70.13
2023-05-19T06:08:29.188Z,70.13
2023-05-19T06:09:01.875Z,69.93
2023-05-19T06:09:34.549Z,70.13
2023-05-19T06:10:07.233Z,69.82
2023-05-19T06:10:39.887Z,69.62
2023-05-19T06:11:12.596Z,69.82
2023-05-19T06:11:45.295Z,69.21
2023-05-19T06:12:17.941Z,69.72
2023-05-19T06:12:50.619Z,70.23
2023-05-19T06:13:23.293Z,70.23
2023-05-19T06:13:55.986Z,69.82
2023-05-19T06:14:28.656Z,69.62
2023-05-19T06:15:01.325Z,69.62
2023-05-19T06:15:34.075Z,69.52
2023-05-19T06:16:06.801Z,69.38
2023-05-19T06:16:39.632Z,69.48
2023-05-19T06:17:06.021Z,69.48
2023-05-19T06:17:38.734Z,69.48
2023-05-19T06:18:11.440Z,69.48
2023-05-19T06:18:44.149Z,69.48
2023-05-19T06:19:16.923Z,69.28
2023-05-19T06:19:49.615Z,69.35
2023-05-19T06:20:22.263Z,69.56
2023-05-19T06:20:54.957Z,69.24
2023-05-19T06:21:27.612Z,68.94
2023-05-19T06:22:00.279Z,68.63
2023-05-19T06:22:32.940Z,68.53
2023-05-19T06:23:05.618Z,68.53
2023-05-19T06:23:38.284Z,68.63
2023-05-19T06:24:10.972Z,68.40
2023-05-19T06:24:43.711Z,68.50
2023-05-19T06:25:16.383Z,68.50
2023-05-19T06:25:49.070Z,68.30
2023-05-19T06:26:21.741Z,67.99
2023-05-19T06:26:54.393Z,68.09
2023-05-19T06:27:27.058Z,67.99
2023-05-19T06:27:59.733Z,68.30
2023-05-19T06:28:32.418Z,68.60
2023-05-19T06:29:05.113Z,69.01
2023-05-19T06:29:37.800Z,69.21
2023-05-19T06:30:10.463Z,68.91
2023-05-19T06:30:43.140Z,68.80
2023-05-19T06:31:15.799Z,68.57
2023-05-19T06:31:48.522Z,67.76
2023-05-19T06:32:21.329Z,67.76
2023-05-19T06:32:52.337Z,67.76
2023-05-19T06:33:26.146Z,67.76
2023-05-19T06:33:54.342Z,67.76
2023-05-19T06:34:27.025Z,67.93
2023-05-19T06:34:59.690Z,67.62
2023-05-19T06:35:32.401Z,67.32
2023-05-19T06:36:05.088Z,67.41
2023-05-19T06:36:37.756Z,67.29
2023-05-19T06:37:10.439Z,67.49
2023-05-19T06:37:43.102Z,67.18
2023-05-19T06:38:15.861Z,66.97
2023-05-19T06:38:48.525Z,66.77
2023-05-19T06:39:21.199Z,66.57
2023-05-19T06:39:53.868Z,66.57
2023-05-19T06:40:26.532Z,66.97
2023-05-19T06:40:59.240Z,67.59
2023-05-19T06:41:31.878Z,68.07
2023-05-19T06:42:04.546Z,67.05
2023-05-19T06:42:37.224Z,66.74
2023-05-19T06:43:09.897Z,66.74
2023-05-19T06:43:42.568Z,66.71
2023-05-19T06:44:15.258Z,65.59
2023-05-19T06:44:47.929Z,65.52
2023-05-19T06:45:20.599Z,65.72
2023-05-19T06:45:53.376Z,65.62
2023-05-19T06:46:26.044Z,66.03
2023-05-19T06:46:58.751Z,66.13
2023-05-19T06:47:31.450Z,65.92
2023-05-19T06:48:04.271Z,65.72
2023-05-19T06:48:36.954Z,65.59
2023-05-19T06:49:09.670Z,65.08
2023-05-19T06:49:42.306Z,65.08
2023-05-19T06:50:14.988Z,64.98
2023-05-19T06:50:47.641Z,64.95
2023-05-19T06:51:20.324Z,64.95
2023-05-19T06:51:53.002Z,64.84
2023-05-19T06:52:25.685Z,64.84
2023-05-19T06:52:58.479Z,64.75
2023-05-19T06:53:31.158Z,64.51
2023-05-19T06:54:02.255Z,64.41
2023-05-19T06:54:34.963Z,64.61
2023-05-19T06:55:07.657Z,64.31
2023-05-19T06:55:50.733Z,64.79
2023-05-19T06:56:12.430Z,64.07
2023-05-19T06:56:38.597Z,63.46
2023-05-19T06:57:11.288Z,63.26
2023-05-19T06:57:43.957Z,63.36
2023-05-19T06:58:16.627Z,63.77
2023-05-19T06:58:49.317Z,63.77
2023-05-19T06:59:21.980Z,63.77
2023-05-19T06:59:53.071Z,63.97